Osceola, MO (64776)

5:09 AM CDT on July 13, 2014 (GMT -0500)
Between Arnica And Bugtussle (KMOHUMAN2) Elev 1010 ft | 37.75 °N, 93.67 °W | Change Station

Current weather conditions updated 34 seconds ago

Scattered Clouds
Scattered Clouds
77.0 °F
Feels Like 79 °F
N
2.0
Wind Variable Wind from North
Gusts 2.0 mph

Today is forecast to be Cooler than yesterday.

Today
High -- | Low -- °F
--% Chance of Precip.
Yesterday
High -- | Low -- °F
Precip. -- in
6:03 AM 8:38 PM
Full, 99% visible
Pressure 30.04 in
Visibility 8.0 miles
Clouds Scattered Clouds 9000 ft
Heat Index 79 °F
Dew Point 62 °F
Humidity 59%
Rainfall 0.15 in
Snow Depth Not available.
UV 0 out of 12
Pollen 4.50 out of 12
Air Quality Not available.
Flu Activity Sporadic
METAR KGLY 130955Z AUTO 34013G19KT 8SM SCT090 24/20 A3004 RMK AO2

More Conditions Fewer Conditions

Pressure 30.04 in
Visibility 8.0 miles
Clouds Scattered Clouds 9000 ft
Heat Index 79 °F
Dew Point 62 °F
Humidity 59%
Rainfall 0.15 in
Snow Depth Not available.
UV 0 out of 12
Pollen 4.50 out of 12
Air Quality Not available.
Flu Activity Sporadic
METAR KGLY 130955Z AUTO 34013G19KT 8SM SCT090 24/20 A3004 RMK AO2

More Conditions Fewer Conditions

10-Day Weather Forecast

Almanac

Astronomy

Jul. 13, 2014 Rise Set
Actual Time 6:03 AM CDT 8:38 PM CDT
Civil Twilight 5:32 AM CDT 9:09 PM CDT
Nautical Twilight 4:54 AM CDT 9:47 PM CDT
Astronomical Twilight 4:11 AM CDT 10:29 PM CDT
Moon 9:30 PM CDT 7:32 AM CDT
Length of Visible Light 15h 36m
Length of Day
14h 35m
Tomorrow will be 1m 10s shorter.
Full, 99% of the Moon is Illuminated
Today
Full
Jul 18
Last Quarter
Jul 26
New
Aug 3
First Quarter
Aug 10
Full

Today's Extremes

State Highs State Lows

Community

WunderPhotos

Upload Photos

1,733,147 photos uploaded!

Nearby

Snow Depth

Station Depth Elevation
No new snow has been reported.

Earthquake Activity

City Distance Mag. Time & Date
No recent earthquake activity has been reported nearby.
Minimum magnitude displayed is 2.5.

Coastal Water Temperatures

Place Temperature
No Stations Reporting

Nearby Weather Stations

Station Location Temp. Heat Index Dew Point Humidity Wind Precip. Elev Updated Type
Between Arnica And Bugtussle, Humansville, MO 77.0 °F 79 °F 62 °F 59% North  at  2.0 mph 0.15 in / hr 1010 ft 5:08 AM CDT Normal
City Park, Stockton, MO 76.5 °F 78 °F 67 °F 72% SSE  at  3.8 mph 0.00 in / hr 958 ft 5:09 AM CDT Rapid Fire
RAWS CLINTON MO, Clinton, MO 75 °F 76 °F 67 °F 75% SW  at  1 mph 0.00 in / hr 759 ft 4:13 AM CDT MADIS
AIRNow ELDOSPGS , Jerico Springs, MO 75 °F 76 °F 67 °F 77% North  at  - 0.00 in / hr 965 ft 4:00 AM CDT MADIS

Show More Stations Show Fewer Stations